sensor_id;sensor_type;location;lat;lon;timestamp;temperature;humidity
2577;DHT22;1298;51.252;6.802;2022-10-24T00:02:37;15.60;99.90
2577;DHT22;1298;51.252;6.802;2022-10-24T00:05:23;15.60;99.90
2577;DHT22;1298;51.252;6.802;2022-10-24T00:08:09;15.60;99.90
2577;DHT22;1298;51.252;6.802;2022-10-24T00:10:54;15.50;99.90
2577;DHT22;1298;51.252;6.802;2022-10-24T00:13:39;15.40;99.90
2577;DHT22;1298;51.252;6.802;2022-10-24T00:16:24;15.40;99.90
2577;DHT22;1298;51.252;6.802;2022-10-24T00:19:11;15.40;99.90
2577;DHT22;1298;51.252;6.802;2022-10-24T00:21:56;15.30;99.90
2577;DHT22;1298;51.252;6.802;2022-10-24T00:24:41;15.30;99.90
2577;DHT22;1298;51.252;6.802;2022-10-24T00:27:26;15.30;99.90
2577;DHT22;1298;51.252;6.802;2022-10-24T00:30:12;15.30;99.90
2577;DHT22;1298;51.252;6.802;2022-10-24T00:32:57;15.30;99.90
2577;DHT22;1298;51.252;6.802;2022-10-24T00:35:44;15.30;99.90
2577;DHT22;1298;51.252;6.802;2022-10-24T00:38:29;15.30;99.90
2577;DHT22;1298;51.252;6.802;2022-10-24T00:41:14;15.40;99.90
2577;DHT22;1298;51.252;6.802;2022-10-24T00:44:11;15.40;99.90
2577;DHT22;1298;51.252;6.802;2022-10-24T00:46:57;15.50;99.90
2577;DHT22;1298;51.252;6.802;2022-10-24T00:49:44;15.50;99.90
2577;DHT22;1298;51.252;6.802;2022-10-24T00:52:32;15.50;99.90
2577;DHT22;1298;51.252;6.802;2022-10-24T00:55:18;15.50;99.90
2577;DHT22;1298;51.252;6.802;2022-10-24T00:58:04;15.50;99.90
2577;DHT22;1298;51.252;6.802;2022-10-24T01:03:24;15.50;99.90
2577;DHT22;1298;51.252;6.802;2022-10-24T01:06:15;15.60;99.90
2577;DHT22;1298;51.252;6.802;2022-10-24T01:09:11;15.60;99.90
2577;DHT22;1298;51.252;6.802;2022-10-24T01:12:02;15.60;99.90
2577;DHT22;1298;51.252;6.802;2022-10-24T01:14:49;15.60;99.90
2577;DHT22;1298;51.252;6.802;2022-10-24T01:17:38;15.60;99.90
2577;DHT22;1298;51.252;6.802;2022-10-24T01:20:33;15.60;99.90
2577;DHT22;1298;51.252;6.802;2022-10-24T01:23:44;15.60;99.90
2577;DHT22;1298;51.252;6.802;2022-10-24T01:29:44;15.60;99.90
2577;DHT22;1298;51.252;6.802;2022-10-24T01:32:33;15.60;99.90
2577;DHT22;1298;51.252;6.802;2022-10-24T01:35:31;15.60;99.90
2577;DHT22;1298;51.252;6.802;2022-10-24T01:38:20;15.60;99.90
2577;DHT22;1298;51.252;6.802;2022-10-24T01:41:08;15.50;99.90
2577;DHT22;1298;51.252;6.802;2022-10-24T01:43:55;15.50;99.90
2577;DHT22;1298;51.252;6.802;2022-10-24T01:46:47;15.40;99.90
2577;DHT22;1298;51.252;6.802;2022-10-24T01:49:35;15.40;99.90
2577;DHT22;1298;51.252;6.802;2022-10-24T01:52:21;15.40;99.90
2577;DHT22;1298;51.252;6.802;2022-10-24T01:55:08;15.30;99.90
2577;DHT22;1298;51.252;6.802;2022-10-24T01:57:53;15.30;99.90
2577;DHT22;1298;51.252;6.802;2022-10-24T02:00:39;15.40;99.90
2577;DHT22;1298;51.252;6.802;2022-10-24T02:03:28;15.40;99.90
2577;DHT22;1298;51.252;6.802;2022-10-24T02:06:14;15.40;99.90
2577;DHT22;1298;51.252;6.802;2022-10-24T02:09:02;15.40;99.90
2577;DHT22;1298;51.252;6.802;2022-10-24T02:11:48;15.40;99.90
2577;DHT22;1298;51.252;6.802;2022-10-24T02:14:35;15.40;99.90
2577;DHT22;1298;51.252;6.802;2022-10-24T02:17:20;15.30;99.90
2577;DHT22;1298;51.252;6.802;2022-10-24T02:20:07;15.40;99.90
2577;DHT22;1298;51.252;6.802;2022-10-24T02:22:55;15.40;99.90
2577;DHT22;1298;51.252;6.802;2022-10-24T02:25:41;15.30;99.90
2577;DHT22;1298;51.252;6.802;2022-10-24T02:28:29;15.30;99.90
2577;DHT22;1298;51.252;6.802;2022-10-24T02:31:17;15.30;99.90
2577;DHT22;1298;51.252;6.802;2022-10-24T02:34:05;15.30;99.90
2577;DHT22;1298;51.252;6.802;2022-10-24T02:36:53;15.30;99.90
2577;DHT22;1298;51.252;6.802;2022-10-24T02:39:39;15.30;99.90
2577;DHT22;1298;51.252;6.802;2022-10-24T02:42:25;15.30;99.90
2577;DHT22;1298;51.252;6.802;2022-10-24T02:45:11;15.30;99.90
2577;DHT22;1298;51.252;6.802;2022-10-24T02:47:59;15.30;99.90
2577;DHT22;1298;51.252;6.802;2022-10-24T02:50:46;15.30;99.90
2577;DHT22;1298;51.252;6.802;2022-10-24T02:53:35;15.30;99.90
2577;DHT22;1298;51.252;6.802;2022-10-24T02:56:20;15.40;99.90
2577;DHT22;1298;51.252;6.802;2022-10-24T02:59:05;15.40;99.90
2577;DHT22;1298;51.252;6.802;2022-10-24T03:01:51;15.30;99.90
2577;DHT22;1298;51.252;6.802;2022-10-24T03:04:36;15.40;99.90
2577;DHT22;1298;51.252;6.802;2022-10-24T03:07:21;15.40;99.90
2577;DHT22;1298;51.252;6.802;2022-10-24T03:10:08;15.40;99.90
2577;DHT22;1298;51.252;6.802;2022-10-24T03:12:53;15.40;99.90
2577;DHT22;1298;51.252;6.802;2022-10-24T03:15:38;15.40;99.90
2577;DHT22;1298;51.252;6.802;2022-10-24T03:18:23;15.40;99.90
2577;DHT22;1298;51.252;6.802;2022-10-24T03:21:08;15.40;99.90
2577;DHT22;1298;51.252;6.802;2022-10-24T03:23:54;15.40;99.90
2577;DHT22;1298;51.252;6.802;2022-10-24T03:26:40;15.30;99.90
2577;DHT22;1298;51.252;6.802;2022-10-24T03:29:25;15.40;99.90
2577;DHT22;1298;51.252;6.802;2022-10-24T03:32:10;15.40;99.90
2577;DHT22;1298;51.252;6.802;2022-10-24T03:34:55;15.40;99.90
2577;DHT22;1298;51.252;6.802;2022-10-24T03:37:41;15.40;99.90
2577;DHT22;1298;51.252;6.802;2022-10-24T03:40:26;15.50;99.90
2577;DHT22;1298;51.252;6.802;2022-10-24T03:43:12;15.50;99.90
2577;DHT22;1298;51.252;6.802;2022-10-24T03:45:57;15.40;99.90
2577;DHT22;1298;51.252;6.802;2022-10-24T03:48:43;15.50;99.90
2577;DHT22;1298;51.252;6.802;2022-10-24T03:51:28;15.50;99.90
2577;DHT22;1298;51.252;6.802;2022-10-24T03:54:13;15.50;99.90
2577;DHT22;1298;51.252;6.802;2022-10-24T03:56:59;15.50;99.90
2577;DHT22;1298;51.252;6.802;2022-10-24T03:59:45;15.60;99.90
2577;DHT22;1298;51.252;6.802;2022-10-24T04:02:30;15.60;99.90
2577;DHT22;1298;51.252;6.802;2022-10-24T04:05:16;15.60;99.90
2577;DHT22;1298;51.252;6.802;2022-10-24T04:08:01;15.60;99.90
2577;DHT22;1298;51.252;6.802;2022-10-24T04:10:47;15.50;99.90
2577;DHT22;1298;51.252;6.802;2022-10-24T04:13:33;15.50;99.90
2577;DHT22;1298;51.252;6.802;2022-10-24T04:16:19;15.40;99.90
2577;DHT22;1298;51.252;6.802;2022-10-24T04:19:06;15.40;99.90
2577;DHT22;1298;51.252;6.802;2022-10-24T04:21:53;15.40;99.90
2577;DHT22;1298;51.252;6.802;2022-10-24T04:24:38;15.30;99.90
2577;DHT22;1298;51.252;6.802;2022-10-24T04:27:23;15.40;99.90
2577;DHT22;1298;51.252;6.802;2022-10-24T04:30:09;15.40;99.90
2577;DHT22;1298;51.252;6.802;2022-10-24T04:32:56;15.40;99.90
2577;DHT22;1298;51.252;6.802;2022-10-24T04:35:45;15.40;99.90
2577;DHT22;1298;51.252;6.802;2022-10-24T04:38:31;15.40;99.90
2577;DHT22;1298;51.252;6.802;2022-10-24T04:41:16;15.30;99.90
2577;DHT22;1298;51.252;6.802;2022-10-24T04:44:01;15.30;99.90
2577;DHT22;1298;51.252;6.802;2022-10-24T04:46:46;15.30;99.90
2577;DHT22;1298;51.252;6.802;2022-10-24T04:49:33;15.30;99.90
2577;DHT22;1298;51.252;6.802;2022-10-24T04:52:18;15.30;99.90
2577;DHT22;1298;51.252;6.802;2022-10-24T04:55:03;15.30;99.90
2577;DHT22;1298;51.252;6.802;2022-10-24T04:57:49;15.30;99.90
2577;DHT22;1298;51.252;6.802;2022-10-24T05:00:34;15.30;99.90
2577;DHT22;1298;51.252;6.802;2022-10-24T05:03:19;15.40;99.90
2577;DHT22;1298;51.252;6.802;2022-10-24T05:06:08;15.40;99.90
2577;DHT22;1298;51.252;6.802;2022-10-24T05:08:53;15.50;99.90
2577;DHT22;1298;51.252;6.802;2022-10-24T05:11:38;15.60;99.90
2577;DHT22;1298;51.252;6.802;2022-10-24T05:14:23;15.60;99.90
2577;DHT22;1298;51.252;6.802;2022-10-24T05:17:08;15.60;99.90
2577;DHT22;1298;51.252;6.802;2022-10-24T05:19:53;15.60;99.90
2577;DHT22;1298;51.252;6.802;2022-10-24T05:22:40;15.60;99.90
2577;DHT22;1298;51.252;6.802;2022-10-24T05:25:25;15.60;99.90
2577;DHT22;1298;51.252;6.802;2022-10-24T05:28:10;15.60;99.90
2577;DHT22;1298;51.252;6.802;2022-10-24T05:30:56;15.60;99.90
2577;DHT22;1298;51.252;6.802;2022-10-24T05:33:41;15.50;99.90
2577;DHT22;1298;51.252;6.802;2022-10-24T05:36:26;15.50;99.90
2577;DHT22;1298;51.252;6.802;2022-10-24T05:39:13;15.50;99.90
2577;DHT22;1298;51.252;6.802;2022-10-24T05:41:57;15.50;99.90
2577;DHT22;1298;51.252;6.802;2022-10-24T05:44:43;15.50;99.90
2577;DHT22;1298;51.252;6.802;2022-10-24T05:47:28;15.40;99.90
2577;DHT22;1298;51.252;6.802;2022-10-24T05:50:14;15.40;99.90
2577;DHT22;1298;51.252;6.802;2022-10-24T05:52:59;15.40;99.90
2577;DHT22;1298;51.252;6.802;2022-10-24T05:55:45;15.50;99.90
2577;DHT22;1298;51.252;6.802;2022-10-24T05:58:31;15.50;99.90
2577;DHT22;1298;51.252;6.802;2022-10-24T06:01:16;15.40;99.90
2577;DHT22;1298;51.252;6.802;2022-10-24T06:04:01;15.40;99.90
2577;DHT22;1298;51.252;6.802;2022-10-24T06:06:47;15.40;99.90
2577;DHT22;1298;51.252;6.802;2022-10-24T06:09:31;15.40;99.90
2577;DHT22;1298;51.252;6.802;2022-10-24T06:12:18;15.40;99.90
2577;DHT22;1298;51.252;6.802;2022-10-24T06:15:04;15.40;99.90
2577;DHT22;1298;51.252;6.802;2022-10-24T06:17:50;15.40;99.90
2577;DHT22;1298;51.252;6.802;2022-10-24T06:20:35;15.40;99.90
2577;DHT22;1298;51.252;6.802;2022-10-24T06:23:20;15.40;99.90
2577;DHT22;1298;51.252;6.802;2022-10-24T06:26:06;15.40;99.90
2577;DHT22;1298;51.252;6.802;2022-10-24T06:28:55;15.40;99.90
2577;DHT22;1298;51.252;6.802;2022-10-24T06:31:40;15.40;99.90
2577;DHT22;1298;51.252;6.802;2022-10-24T06:34:25;15.40;99.90
2577;DHT22;1298;51.252;6.802;2022-10-24T06:37:10;15.40;99.90
2577;DHT22;1298;51.252;6.802;2022-10-24T06:39:55;15.40;99.90
2577;DHT22;1298;51.252;6.802;2022-10-24T06:42:40;15.40;99.90
2577;DHT22;1298;51.252;6.802;2022-10-24T06:45:26;15.40;99.90
2577;DHT22;1298;51.252;6.802;2022-10-24T06:48:12;15.50;99.90
2577;DHT22;1298;51.252;6.802;2022-10-24T06:50:57;15.60;99.90
2577;DHT22;1298;51.252;6.802;2022-10-24T06:53:42;15.60;99.90
2577;DHT22;1298;51.252;6.802;2022-10-24T06:56:27;15.70;99.90
2577;DHT22;1298;51.252;6.802;2022-10-24T06:59:14;15.80;99.90
2577;DHT22;1298;51.252;6.802;2022-10-24T07:02:01;15.80;99.90
2577;DHT22;1298;51.252;6.802;2022-10-24T07:04:46;15.90;99.90
2577;DHT22;1298;51.252;6.802;2022-10-24T07:07:31;16.00;99.90
2577;DHT22;1298;51.252;6.802;2022-10-24T07:10:16;16.10;99.90
2577;DHT22;1298;51.252;6.802;2022-10-24T07:13:01;16.10;99.90
2577;DHT22;1298;51.252;6.802;2022-10-24T07:15:46;16.10;99.90
2577;DHT22;1298;51.252;6.802;2022-10-24T07:18:33;16.10;99.90
2577;DHT22;1298;51.252;6.802;2022-10-24T07:21:19;16.20;99.90
2577;DHT22;1298;51.252;6.802;2022-10-24T07:24:07;16.20;99.90
2577;DHT22;1298;51.252;6.802;2022-10-24T07:26:52;16.20;99.90
2577;DHT22;1298;51.252;6.802;2022-10-24T07:29:37;16.30;99.90
2577;DHT22;1298;51.252;6.802;2022-10-24T07:32:22;16.40;99.90
2577;DHT22;1298;51.252;6.802;2022-10-24T07:35:10;16.40;99.90
2577;DHT22;1298;51.252;6.802;2022-10-24T07:37:56;16.40;99.90
2577;DHT22;1298;51.252;6.802;2022-10-24T07:40:41;16.40;99.90
2577;DHT22;1298;51.252;6.802;2022-10-24T07:43:27;16.40;99.90
2577;DHT22;1298;51.252;6.802;2022-10-24T07:46:13;16.40;99.90
2577;DHT22;1298;51.252;6.802;2022-10-24T07:49:00;16.50;99.90
2577;DHT22;1298;51.252;6.802;2022-10-24T07:51:46;16.50;99.90
2577;DHT22;1298;51.252;6.802;2022-10-24T07:54:31;16.60;99.90
2577;DHT22;1298;51.252;6.802;2022-10-24T07:57:16;16.60;99.90
2577;DHT22;1298;51.252;6.802;2022-10-24T08:00:02;16.70;99.90
2577;DHT22;1298;51.252;6.802;2022-10-24T08:02:47;16.70;99.90
2577;DHT22;1298;51.252;6.802;2022-10-24T08:05:32;16.80;99.90
2577;DHT22;1298;51.252;6.802;2022-10-24T08:08:19;16.80;99.90
2577;DHT22;1298;51.252;6.802;2022-10-24T08:11:07;16.80;99.90
2577;DHT22;1298;51.252;6.802;2022-10-24T08:13:53;16.90;99.90
2577;DHT22;1298;51.252;6.802;2022-10-24T08:16:40;16.90;99.90
2577;DHT22;1298;51.252;6.802;2022-10-24T08:19:25;17.00;99.90
2577;DHT22;1298;51.252;6.802;2022-10-24T08:22:11;17.00;99.90
2577;DHT22;1298;51.252;6.802;2022-10-24T08:24:57;17.10;99.90
2577;DHT22;1298;51.252;6.802;2022-10-24T08:27:42;17.20;99.90
2577;DHT22;1298;51.252;6.802;2022-10-24T08:30:27;17.20;99.90
2577;DHT22;1298;51.252;6.802;2022-10-24T08:33:12;17.20;99.90
2577;DHT22;1298;51.252;6.802;2022-10-24T08:35:58;17.30;99.90
2577;DHT22;1298;51.252;6.802;2022-10-24T08:38:44;17.40;99.90
2577;DHT22;1298;51.252;6.802;2022-10-24T08:41:32;17.40;99.90
2577;DHT22;1298;51.252;6.802;2022-10-24T08:44:19;17.40;99.90
2577;DHT22;1298;51.252;6.802;2022-10-24T08:47:05;17.40;99.90
2577;DHT22;1298;51.252;6.802;2022-10-24T08:49:54;17.50;99.90
2577;DHT22;1298;51.252;6.802;2022-10-24T08:52:42;17.50;99.90
2577;DHT22;1298;51.252;6.802;2022-10-24T08:55:29;17.50;99.90
2577;DHT22;1298;51.252;6.802;2022-10-24T08:58:18;17.50;99.90
2577;DHT22;1298;51.252;6.802;2022-10-24T09:01:06;17.50;99.90
2577;DHT22;1298;51.252;6.802;2022-10-24T09:03:51;17.60;99.90
2577;DHT22;1298;51.252;6.802;2022-10-24T09:06:36;17.70;99.90
2577;DHT22;1298;51.252;6.802;2022-10-24T09:09:22;17.70;99.90
2577;DHT22;1298;51.252;6.802;2022-10-24T09:12:10;17.80;99.90
2577;DHT22;1298;51.252;6.802;2022-10-24T09:14:58;17.90;99.90
2577;DHT22;1298;51.252;6.802;2022-10-24T09:17:43;17.90;99.90
2577;DHT22;1298;51.252;6.802;2022-10-24T09:20:30;17.90;99.90
2577;DHT22;1298;51.252;6.802;2022-10-24T09:23:16;17.90;99.90
2577;DHT22;1298;51.252;6.802;2022-10-24T09:26:02;17.90;99.90
2577;DHT22;1298;51.252;6.802;2022-10-24T09:28:48;18.00;99.90
2577;DHT22;1298;51.252;6.802;2022-10-24T09:31:35;17.90;99.90
2577;DHT22;1298;51.252;6.802;2022-10-24T09:34:21;17.90;99.90
2577;DHT22;1298;51.252;6.802;2022-10-24T09:37:06;17.90;99.90
2577;DHT22;1298;51.252;6.802;2022-10-24T09:39:54;17.90;99.90
2577;DHT22;1298;51.252;6.802;2022-10-24T09:42:49;18.00;99.90
2577;DHT22;1298;51.252;6.802;2022-10-24T09:45:37;18.00;99.90
2577;DHT22;1298;51.252;6.802;2022-10-24T09:48:25;18.00;99.90
2577;DHT22;1298;51.252;6.802;2022-10-24T09:51:17;18.00;99.90
2577;DHT22;1298;51.252;6.802;2022-10-24T09:54:05;18.10;99.90
2577;DHT22;1298;51.252;6.802;2022-10-24T09:56:53;18.10;99.90
2577;DHT22;1298;51.252;6.802;2022-10-24T09:59:39;18.10;99.90
2577;DHT22;1298;51.252;6.802;2022-10-24T10:02:26;18.20;99.90
2577;DHT22;1298;51.252;6.802;2022-10-24T10:05:17;18.10;99.90
2577;DHT22;1298;51.252;6.802;2022-10-24T10:08:07;18.20;99.90
2577;DHT22;1298;51.252;6.802;2022-10-24T10:10:54;18.20;99.90
2577;DHT22;1298;51.252;6.802;2022-10-24T10:13:42;18.20;99.90
2577;DHT22;1298;51.252;6.802;2022-10-24T10:16:32;18.20;99.90
2577;DHT22;1298;51.252;6.802;2022-10-24T10:19:20;18.20;99.90
2577;DHT22;1298;51.252;6.802;2022-10-24T10:22:19;18.20;99.90
2577;DHT22;1298;51.252;6.802;2022-10-24T10:25:12;18.20;99.90
2577;DHT22;1298;51.252;6.802;2022-10-24T10:28:18;18.20;99.90
2577;DHT22;1298;51.252;6.802;2022-10-24T10:31:03;18.10;99.90
2577;DHT22;1298;51.252;6.802;2022-10-24T10:33:58;18.00;99.90
2577;DHT22;1298;51.252;6.802;2022-10-24T10:36:54;18.00;99.90
2577;DHT22;1298;51.252;6.802;2022-10-24T10:43:03;18.00;99.90
2577;DHT22;1298;51.252;6.802;2022-10-24T10:45:52;18.00;99.90
2577;DHT22;1298;51.252;6.802;2022-10-24T10:48:41;18.00;99.90
2577;DHT22;1298;51.252;6.802;2022-10-24T10:51:31;18.00;99.90
2577;DHT22;1298;51.252;6.802;2022-10-24T10:54:24;18.00;99.90
2577;DHT22;1298;51.252;6.802;2022-10-24T10:57:14;18.10;99.90
2577;DHT22;1298;51.252;6.802;2022-10-24T11:00:05;18.00;99.90
2577;DHT22;1298;51.252;6.802;2022-10-24T11:02:54;18.10;99.90
2577;DHT22;1298;51.252;6.802;2022-10-24T11:05:45;18.10;99.90
2577;DHT22;1298;51.252;6.802;2022-10-24T11:08:39;18.10;99.90
2577;DHT22;1298;51.252;6.802;2022-10-24T11:11:30;18.10;99.90
2577;DHT22;1298;51.252;6.802;2022-10-24T11:14:20;18.10;99.90
2577;DHT22;1298;51.252;6.802;2022-10-24T11:17:11;18.10;99.90
2577;DHT22;1298;51.252;6.802;2022-10-24T11:20:04;18.10;99.90
2577;DHT22;1298;51.252;6.802;2022-10-24T11:22:52;18.10;99.90
2577;DHT22;1298;51.252;6.802;2022-10-24T11:25:39;18.10;99.90
2577;DHT22;1298;51.252;6.802;2022-10-24T11:28:27;18.10;99.90
2577;DHT22;1298;51.252;6.802;2022-10-24T11:31:15;18.00;99.90
2577;DHT22;1298;51.252;6.802;2022-10-24T11:34:05;18.00;99.90
2577;DHT22;1298;51.252;6.802;2022-10-24T11:36:56;18.00;99.90
2577;DHT22;1298;51.252;6.802;2022-10-24T11:39:44;18.00;99.90
2577;DHT22;1298;51.252;6.802;2022-10-24T11:42:33;18.00;99.90
2577;DHT22;1298;51.252;6.802;2022-10-24T11:45:21;18.00;99.90
2577;DHT22;1298;51.252;6.802;2022-10-24T11:48:11;18.10;99.90
2577;DHT22;1298;51.252;6.802;2022-10-24T11:50:59;18.10;99.90
2577;DHT22;1298;51.252;6.802;2022-10-24T11:53:48;18.00;99.90
2577;DHT22;1298;51.252;6.802;2022-10-24T11:56:35;18.00;99.90
2577;DHT22;1298;51.252;6.802;2022-10-24T11:59:22;18.10;99.90
2577;DHT22;1298;51.252;6.802;2022-10-24T12:11:21;18.00;99.90
2577;DHT22;1298;51.252;6.802;2022-10-24T12:14:20;18.00;99.90
2577;DHT22;1298;51.252;6.802;2022-10-24T12:17:23;18.10;99.90
2577;DHT22;1298;51.252;6.802;2022-10-24T12:20:15;18.10;99.90
2577;DHT22;1298;51.252;6.802;2022-10-24T12:23:02;18.20;99.90
2577;DHT22;1298;51.252;6.802;2022-10-24T12:25:59;18.20;99.90
2577;DHT22;1298;51.252;6.802;2022-10-24T12:28:53;18.20;99.90
2577;DHT22;1298;51.252;6.802;2022-10-24T12:31:39;18.60;99.90
2577;DHT22;1298;51.252;6.802;2022-10-24T12:34:39;18.90;99.90
2577;DHT22;1298;51.252;6.802;2022-10-24T12:37:32;19.20;99.90
2577;DHT22;1298;51.252;6.802;2022-10-24T12:43:26;18.90;99.90
2577;DHT22;1298;51.252;6.802;2022-10-24T12:49:18;19.10;99.90
2577;DHT22;1298;51.252;6.802;2022-10-24T12:52:48;19.20;99.90
2577;DHT22;1298;51.252;6.802;2022-10-24T12:55:28;19.00;99.90
2577;DHT22;1298;51.252;6.802;2022-10-24T12:58:21;19.10;99.90
2577;DHT22;1298;51.252;6.802;2022-10-24T13:01:09;19.10;99.90
2577;DHT22;1298;51.252;6.802;2022-10-24T13:03:59;19.00;99.90
2577;DHT22;1298;51.252;6.802;2022-10-24T13:06:51;19.00;99.90
2577;DHT22;1298;51.252;6.802;2022-10-24T13:09:44;19.00;99.90
2577;DHT22;1298;51.252;6.802;2022-10-24T13:12:32;19.40;99.90
2577;DHT22;1298;51.252;6.802;2022-10-24T13:15:22;19.90;99.90
2577;DHT22;1298;51.252;6.802;2022-10-24T13:18:13;20.40;99.90
2577;DHT22;1298;51.252;6.802;2022-10-24T13:21:06;21.30;99.90
2577;DHT22;1298;51.252;6.802;2022-10-24T13:23:52;20.70;99.90
2577;DHT22;1298;51.252;6.802;2022-10-24T13:26:38;19.90;99.90
2577;DHT22;1298;51.252;6.802;2022-10-24T13:32:31;19.50;99.90
2577;DHT22;1298;51.252;6.802;2022-10-24T13:35:19;19.70;99.90
2577;DHT22;1298;51.252;6.802;2022-10-24T13:38:07;20.80;99.90
2577;DHT22;1298;51.252;6.802;2022-10-24T13:40:53;21.80;99.90
2577;DHT22;1298;51.252;6.802;2022-10-24T13:43:40;21.80;99.90
2577;DHT22;1298;51.252;6.802;2022-10-24T13:46:31;22.10;99.90
2577;DHT22;1298;51.252;6.802;2022-10-24T13:49:19;22.40;99.90
2577;DHT22;1298;51.252;6.802;2022-10-24T13:52:07;21.70;99.90
2577;DHT22;1298;51.252;6.802;2022-10-24T13:54:56;20.90;99.90
2577;DHT22;1298;51.252;6.802;2022-10-24T13:57:49;19.90;99.90
2577;DHT22;1298;51.252;6.802;2022-10-24T14:00:36;19.80;99.90
2577;DHT22;1298;51.252;6.802;2022-10-24T14:03:23;19.70;99.90
2577;DHT22;1298;51.252;6.802;2022-10-24T14:06:11;20.00;99.90
2577;DHT22;1298;51.252;6.802;2022-10-24T14:08:56;20.70;99.90
2577;DHT22;1298;51.252;6.802;2022-10-24T14:11:45;20.60;99.90
2577;DHT22;1298;51.252;6.802;2022-10-24T14:14:34;19.90;99.90
2577;DHT22;1298;51.252;6.802;2022-10-24T14:17:21;19.70;99.90
2577;DHT22;1298;51.252;6.802;2022-10-24T14:20:18;19.50;99.90
2577;DHT22;1298;51.252;6.802;2022-10-24T14:23:16;20.10;99.90
2577;DHT22;1298;51.252;6.802;2022-10-24T14:26:06;20.30;99.90
2577;DHT22;1298;51.252;6.802;2022-10-24T14:28:53;20.10;99.90
2577;DHT22;1298;51.252;6.802;2022-10-24T14:31:42;19.90;99.90
2577;DHT22;1298;51.252;6.802;2022-10-24T14:34:29;19.70;99.90
2577;DHT22;1298;51.252;6.802;2022-10-24T14:37:23;19.70;99.90
2577;DHT22;1298;51.252;6.802;2022-10-24T14:40:16;20.10;99.90
2577;DHT22;1298;51.252;6.802;2022-10-24T14:43:01;20.50;99.90
2577;DHT22;1298;51.252;6.802;2022-10-24T14:46:00;20.80;99.90
2577;DHT22;1298;51.252;6.802;2022-10-24T14:48:46;21.10;99.90
2577;DHT22;1298;51.252;6.802;2022-10-24T14:51:32;21.20;99.90
2577;DHT22;1298;51.252;6.802;2022-10-24T14:54:22;20.70;99.90
2577;DHT22;1298;51.252;6.802;2022-10-24T14:57:13;20.30;99.90
2577;DHT22;1298;51.252;6.802;2022-10-24T15:00:02;19.90;99.90
2577;DHT22;1298;51.252;6.802;2022-10-24T15:02:50;19.50;99.90
2577;DHT22;1298;51.252;6.802;2022-10-24T15:05:38;19.30;99.90
2577;DHT22;1298;51.252;6.802;2022-10-24T15:08:25;19.20;99.90
2577;DHT22;1298;51.252;6.802;2022-10-24T15:11:16;19.20;99.90
2577;DHT22;1298;51.252;6.802;2022-10-24T15:14:03;19.20;99.90
2577;DHT22;1298;51.252;6.802;2022-10-24T15:16:48;19.10;99.90
2577;DHT22;1298;51.252;6.802;2022-10-24T15:19:35;19.00;99.90
2577;DHT22;1298;51.252;6.802;2022-10-24T15:22:23;18.90;99.90
2577;DHT22;1298;51.252;6.802;2022-10-24T15:25:15;18.80;99.90
2577;DHT22;1298;51.252;6.802;2022-10-24T15:28:02;18.70;99.90
2577;DHT22;1298;51.252;6.802;2022-10-24T15:30:49;18.60;99.90
2577;DHT22;1298;51.252;6.802;2022-10-24T15:33:34;18.60;99.90
2577;DHT22;1298;51.252;6.802;2022-10-24T15:36:20;18.60;99.90
2577;DHT22;1298;51.252;6.802;2022-10-24T15:39:10;18.60;99.90
2577;DHT22;1298;51.252;6.802;2022-10-24T15:41:56;18.60;99.90
2577;DHT22;1298;51.252;6.802;2022-10-24T15:44:41;18.50;99.90
2577;DHT22;1298;51.252;6.802;2022-10-24T15:47:28;18.50;99.90
2577;DHT22;1298;51.252;6.802;2022-10-24T15:50:14;18.40;99.90
2577;DHT22;1298;51.252;6.802;2022-10-24T15:53:01;18.40;99.90
2577;DHT22;1298;51.252;6.802;2022-10-24T15:55:47;18.40;99.90
2577;DHT22;1298;51.252;6.802;2022-10-24T15:58:32;18.40;99.90
2577;DHT22;1298;51.252;6.802;2022-10-24T16:01:20;18.30;99.90
2577;DHT22;1298;51.252;6.802;2022-10-24T16:04:07;17.90;99.90
2577;DHT22;1298;51.252;6.802;2022-10-24T16:06:53;17.60;99.90
2577;DHT22;1298;51.252;6.802;2022-10-24T16:09:38;17.10;99.90
2577;DHT22;1298;51.252;6.802;2022-10-24T16:12:23;16.80;99.90
2577;DHT22;1298;51.252;6.802;2022-10-24T16:15:12;16.70;99.90
2577;DHT22;1298;51.252;6.802;2022-10-24T16:18:01;16.60;99.90
2577;DHT22;1298;51.252;6.802;2022-10-24T16:20:47;16.50;99.90
2577;DHT22;1298;51.252;6.802;2022-10-24T16:23:33;16.50;99.90
2577;DHT22;1298;51.252;6.802;2022-10-24T16:26:18;16.40;99.90
2577;DHT22;1298;51.252;6.802;2022-10-24T16:29:03;16.40;99.90
2577;DHT22;1298;51.252;6.802;2022-10-24T16:31:48;16.40;99.90
2577;DHT22;1298;51.252;6.802;2022-10-24T16:34:33;16.40;99.90
2577;DHT22;1298;51.252;6.802;2022-10-24T16:37:20;16.40;99.90
2577;DHT22;1298;51.252;6.802;2022-10-24T16:40:05;16.40;99.90
2577;DHT22;1298;51.252;6.802;2022-10-24T16:42:51;16.40;99.90
2577;DHT22;1298;51.252;6.802;2022-10-24T16:45:36;16.40;99.90
2577;DHT22;1298;51.252;6.802;2022-10-24T16:48:22;16.40;99.90
2577;DHT22;1298;51.252;6.802;2022-10-24T16:51:08;16.40;99.90
2577;DHT22;1298;51.252;6.802;2022-10-24T16:53:55;16.40;99.90
2577;DHT22;1298;51.252;6.802;2022-10-24T16:56:40;16.40;99.90
2577;DHT22;1298;51.252;6.802;2022-10-24T16:59:26;16.30;99.90
2577;DHT22;1298;51.252;6.802;2022-10-24T17:02:13;16.30;99.90
2577;DHT22;1298;51.252;6.802;2022-10-24T17:04:59;16.30;99.90
2577;DHT22;1298;51.252;6.802;2022-10-24T17:07:44;16.30;99.90
2577;DHT22;1298;51.252;6.802;2022-10-24T17:10:30;16.30;99.90
2577;DHT22;1298;51.252;6.802;2022-10-24T17:13:16;16.30;99.90
2577;DHT22;1298;51.252;6.802;2022-10-24T17:16:01;16.40;99.90
2577;DHT22;1298;51.252;6.802;2022-10-24T17:18:51;16.50;99.90
2577;DHT22;1298;51.252;6.802;2022-10-24T17:21:36;16.50;99.90
2577;DHT22;1298;51.252;6.802;2022-10-24T17:24:23;16.40;99.90
2577;DHT22;1298;51.252;6.802;2022-10-24T17:27:10;16.20;99.90
2577;DHT22;1298;51.252;6.802;2022-10-24T17:29:56;15.70;99.90
2577;DHT22;1298;51.252;6.802;2022-10-24T17:32:42;15.60;99.90
2577;DHT22;1298;51.252;6.802;2022-10-24T17:35:27;15.40;99.90
2577;DHT22;1298;51.252;6.802;2022-10-24T17:38:17;15.10;99.90
2577;DHT22;1298;51.252;6.802;2022-10-24T17:41:10;14.70;99.90
2577;DHT22;1298;51.252;6.802;2022-10-24T17:43:59;14.40;99.90
2577;DHT22;1298;51.252;6.802;2022-10-24T17:46:44;14.30;99.90
2577;DHT22;1298;51.252;6.802;2022-10-24T17:49:30;14.10;99.90
2577;DHT22;1298;51.252;6.802;2022-10-24T17:52:18;14.00;99.90
2577;DHT22;1298;51.252;6.802;2022-10-24T17:55:05;14.00;99.90
2577;DHT22;1298;51.252;6.802;2022-10-24T17:57:51;14.00;99.90
2577;DHT22;1298;51.252;6.802;2022-10-24T18:00:37;14.00;99.90
2577;DHT22;1298;51.252;6.802;2022-10-24T18:03:23;14.10;99.90
2577;DHT22;1298;51.252;6.802;2022-10-24T18:06:08;14.20;99.90
2577;DHT22;1298;51.252;6.802;2022-10-24T18:08:55;14.20;99.90
2577;DHT22;1298;51.252;6.802;2022-10-24T18:11:40;14.20;99.90
2577;DHT22;1298;51.252;6.802;2022-10-24T18:14:26;14.10;99.90
2577;DHT22;1298;51.252;6.802;2022-10-24T18:17:12;14.10;99.90
2577;DHT22;1298;51.252;6.802;2022-10-24T18:19:58;14.10;99.90
2577;DHT22;1298;51.252;6.802;2022-10-24T18:22:43;14.10;99.90
2577;DHT22;1298;51.252;6.802;2022-10-24T18:25:28;14.10;99.90
2577;DHT22;1298;51.252;6.802;2022-10-24T18:28:13;14.10;99.90
2577;DHT22;1298;51.252;6.802;2022-10-24T18:30:58;14.10;99.90
2577;DHT22;1298;51.252;6.802;2022-10-24T18:33:50;14.10;99.90
2577;DHT22;1298;51.252;6.802;2022-10-24T18:36:35;14.10;99.90
2577;DHT22;1298;51.252;6.802;2022-10-24T18:39:21;14.50;99.90
2577;DHT22;1298;51.252;6.802;2022-10-24T18:42:08;14.70;99.90